Time;durP1;ratioP1;P1;durP2;ratioP2;P2;SDS_P1;SDS_P2;PMS_P1;PMS_P2;Temp;Humidity;BMP_temperature;BMP_pressure;BME280_temperature;BME280_humidity;BME280_pressure;Samples;Min_cycle;Max_cycle;Signal;HPM_P1;HPM_P2
2022/01/11 00:00:41;;;;;;;60.33;32.37;;;;;;;-4.07;100.00;102539.78;4943556;28;20612;-85
2022/01/11 00:03:08;;;;;;;82.00;38.43;;;;;;;-3.76;100.00;102535.91;4969785;28;20117;-82
2022/01/11 00:06:01;;;;;;;83.20;37.33;;;;;;;-3.86;100.00;102536.09;4966130;28;20039;-81
2022/01/11 00:08:34;;;;;;;85.20;37.77;;;;;;;-3.70;100.00;102533.75;4956944;28;20047;-81
2022/01/11 00:11:04;;;;;;;70.00;37.03;;;;;;;-3.70;100.00;102536.31;4945714;28;20039;-83
2022/01/11 00:13:37;;;;;;;80.03;38.50;;;;;;;-3.71;100.00;102531.03;4955579;28;20047;-83
2022/01/11 00:16:05;;;;;;;76.32;37.28;;;;;;;-3.59;100.00;102536.16;4963754;28;20050;-83
2022/01/11 00:18:32;;;;;;;76.00;37.10;;;;;;;-3.53;100.00;102540.03;4961221;28;20377;-82
2022/01/11 00:20:59;;;;;;;84.70;38.77;;;;;;;-3.45;100.00;102545.69;4964776;28;20046;-82
2022/01/11 00:25:55;;;;;;;88.57;39.30;;;;;;;-3.26;100.00;102548.72;4968376;28;20045;-83
2022/01/11 00:28:25;;;;;;;85.50;40.27;;;;;;;-3.25;100.00;102550.50;4960656;28;20050;-81
2022/01/11 00:30:55;;;;;;;91.90;40.88;;;;;;;-3.26;100.00;102558.16;4961081;28;20407;-81
2022/01/11 00:33:50;;;;;;;83.43;38.43;;;;;;;-3.36;100.00;102560.91;4944919;28;20038;-82
2022/01/11 00:36:14;;;;;;;91.37;40.63;;;;;;;-3.27;100.00;102570.19;4955702;28;20047;-82
2022/01/11 00:38:41;;;;;;;89.70;41.40;;;;;;;-3.17;100.00;102571.69;4952151;28;20488;-83
2022/01/11 00:41:11;;;;;;;83.83;39.27;;;;;;;-3.20;100.00;102569.75;4958057;28;20068;-82
2022/01/11 00:43:39;;;;;;;93.57;41.43;;;;;;;-3.14;100.00;102569.28;4962778;28;20047;-84
2022/01/11 00:46:07;;;;;;;95.43;42.80;;;;;;;-3.19;100.00;102566.41;4956393;28;20046;-83
2022/01/11 00:48:39;;;;;;;97.57;42.90;;;;;;;-3.10;100.00;102578.16;4961604;28;20042;-83
2022/01/11 00:51:07;;;;;;;97.50;42.67;;;;;;;-3.16;100.00;102578.63;4958250;28;20047;-83
2022/01/11 00:53:34;;;;;;;92.73;43.97;;;;;;;-3.19;100.00;102583.63;4957989;28;20062;-84
2022/01/11 00:56:00;;;;;;;99.17;43.57;;;;;;;-3.19;100.00;102586.19;4967175;28;20039;-82
2022/01/11 00:58:27;;;;;;;102.77;42.27;;;;;;;-3.15;100.00;102590.75;4948710;28;20062;-83
2022/01/11 01:00:55;;;;;;;96.87;44.00;;;;;;;-3.13;100.00;102589.16;4960021;28;20042;-82
2022/01/11 01:03:26;;;;;;;96.97;44.27;;;;;;;-3.18;100.00;102595.75;4945720;28;20085;-83
2022/01/11 01:05:55;;;;;;;95.30;45.00;;;;;;;-3.18;100.00;102599.22;4944749;28;20038;-82
2022/01/11 01:08:25;;;;;;;90.17;46.50;;;;;;;-3.11;100.00;102603.13;4960580;28;20408;-83
2022/01/11 01:10:55;;;;;;;97.43;42.63;;;;;;;-3.09;100.00;102600.63;4944813;28;20137;-82
2022/01/11 01:13:27;;;;;;;104.57;46.10;;;;;;;-3.09;100.00;102603.22;4945357;28;20053;-83
2022/01/11 01:15:55;;;;;;;95.60;45.50;;;;;;;-2.98;100.00;102592.75;4959512;28;20046;-83
2022/01/11 01:18:25;;;;;;;97.33;43.47;;;;;;;-2.98;100.00;102602.22;4960250;28;20042;-83
2022/01/11 01:20:59;;;;;;;97.73;44.03;;;;;;;-3.05;100.00;102603.50;4975684;28;20054;-83
2022/01/11 01:23:28;;;;;;;102.30;46.33;;;;;;;-3.09;100.00;102609.28;4941906;28;20050;-83
2022/01/11 01:25:56;;;;;;;96.93;43.37;;;;;;;-3.02;100.00;102614.06;4961109;28;20480;-81
2022/01/11 01:28:23;;;;;;;102.77;45.43;;;;;;;-3.05;100.00;102608.66;4960319;28;20042;-81
2022/01/11 01:30:52;;;;;;;100.17;44.50;;;;;;;-2.98;100.00;102610.84;4944334;28;20061;-82
2022/01/11 01:33:19;;;;;;;102.47;44.67;;;;;;;-2.93;100.00;102612.06;4939948;28;20457;-82
2022/01/11 01:35:55;;;;;;;98.67;43.90;;;;;;;-2.86;100.00;102616.84;4945454;28;20050;-83
2022/01/11 01:38:24;;;;;;;95.18;41.08;;;;;;;-3.06;100.00;102617.22;4977227;28;20064;-84
2022/01/11 01:40:55;;;;;;;98.57;44.47;;;;;;;-3.04;100.00;102614.72;4956532;28;20053;-82
2022/01/11 01:43:23;;;;;;;95.37;41.57;;;;;;;-3.12;100.00;102617.69;4940776;28;20073;-81
2022/01/11 01:45:54;;;;;;;90.20;40.53;;;;;;;-2.96;100.00;102622.19;4943169;28;20559;-84
2022/01/11 01:48:22;;;;;;;97.53;40.83;;;;;;;-3.07;100.00;102625.78;4959462;28;20047;-83
2022/01/11 01:50:50;;;;;;;91.00;41.37;;;;;;;-3.07;100.00;102633.53;4943265;28;20104;-83
2022/01/11 01:53:17;;;;;;;87.57;39.27;;;;;;;-3.04;100.00;102633.72;4955445;28;20058;-82
2022/01/11 01:55:46;;;;;;;85.77;37.87;;;;;;;-3.02;100.00;102633.84;4967131;28;20078;-82
2022/01/11 01:58:14;;;;;;;83.17;36.87;;;;;;;-3.10;100.00;102630.75;4967818;23;20488;-80
2022/01/11 02:00:45;;;;;;;84.67;36.07;;;;;;;-3.10;100.00;102640.19;4972047;28;20035;-82
2022/01/11 02:03:15;;;;;;;77.07;35.33;;;;;;;-3.08;100.00;102633.44;4939438;28;20499;-82
2022/01/11 02:05:42;;;;;;;85.30;36.70;;;;;;;-3.10;100.00;102635.03;4939895;28;21622;-81
2022/01/11 02:08:10;;;;;;;84.60;36.57;;;;;;;-3.20;100.00;102634.38;4938788;28;20066;-82
2022/01/11 02:10:37;;;;;;;97.67;36.47;;;;;;;-3.19;100.00;102635.31;4939619;28;20050;-82
2022/01/11 02:13:05;;;;;;;89.83;35.83;;;;;;;-3.27;100.00;102637.38;4939022;28;20518;-81
2022/01/11 02:15:32;;;;;;;84.07;34.70;;;;;;;-3.22;100.00;102650.59;4939629;28;20403;-82
2022/01/11 02:18:07;;;;;;;80.57;35.63;;;;;;;-3.08;100.00;102639.50;4938826;28;20055;-81
2022/01/11 02:20:36;;;;;;;81.70;32.90;;;;;;;-3.05;100.00;102650.03;4939676;28;20046;-81
2022/01/11 02:23:03;;;;;;;77.77;32.90;;;;;;;-3.14;100.00;102639.97;4936495;28;20071;-83
2022/01/11 02:25:30;;;;;;;83.83;35.70;;;;;;;-3.20;100.00;102654.19;4942337;28;20113;-83
2022/01/11 02:27:57;;;;;;;72.27;31.73;;;;;;;-3.21;100.00;102662.72;4945234;28;20045;-84
2022/01/11 02:30:23;;;;;;;83.67;32.40;;;;;;;-3.23;100.00;102660.03;4942510;28;20452;-84
2022/01/11 02:32:52;;;;;;;83.43;33.93;;;;;;;-3.28;100.00;102660.53;4924939;28;20381;-83
2022/01/11 02:35:18;;;;;;;85.87;33.07;;;;;;;-3.37;100.00;102667.66;4942616;28;20061;-82
2022/01/11 02:37:45;;;;;;;84.40;32.30;;;;;;;-3.41;100.00;102658.81;4937860;28;20047;-83
2022/01/11 02:40:13;;;;;;;76.73;31.97;;;;;;;-3.34;100.00;102663.59;4939940;28;20058;-83
2022/01/11 02:42:39;;;;;;;73.77;31.53;;;;;;;-3.33;100.00;102667.09;4937451;28;20154;-82
2022/01/11 02:45:14;;;;;;;78.87;31.93;;;;;;;-3.36;100.00;102665.19;4938759;28;20046;-82
2022/01/11 02:47:41;;;;;;;82.23;35.13;;;;;;;-3.47;100.00;102677.38;4939487;28;20045;-82
2022/01/11 02:50:08;;;;;;;83.83;36.17;;;;;;;-3.44;100.00;102672.44;4933417;28;20531;-83
2022/01/11 02:52:35;;;;;;;80.00;32.50;;;;;;;-3.43;100.00;102676.81;4934408;28;20039;-82
2022/01/11 02:55:06;;;;;;;81.43;32.17;;;;;;;-3.52;100.00;102683.03;4941420;28;20038;-83
2022/01/11 02:57:33;;;;;;;80.17;35.53;;;;;;;-3.37;100.00;102678.88;4928363;28;20547;-81
2022/01/11 03:00:00;;;;;;;84.80;32.50;;;;;;;-3.45;100.00;102678.41;4921227;28;20556;-82
2022/01/11 03:02:26;;;;;;;76.90;32.77;;;;;;;-3.52;100.00;102681.34;4941248;28;20145;-83
2022/01/11 03:04:53;;;;;;;79.07;33.10;;;;;;;-3.36;100.00;102674.59;4942397;28;20046;-82
2022/01/11 03:07:21;;;;;;;88.73;34.07;;;;;;;-3.43;100.00;102678.50;4940413;28;20054;-82
2022/01/11 03:10:02;;;;;;;86.93;33.57;;;;;;;-3.65;100.00;102682.97;4928128;28;20054;-82
2022/01/11 03:12:29;;;;;;;79.43;34.10;;;;;;;-3.49;100.00;102675.47;4937541;28;20050;-82
2022/01/11 03:14:57;;;;;;;86.37;36.80;;;;;;;-3.45;100.00;102680.03;4940902;29;20043;-82
2022/01/11 03:17:25;;;;;;;84.47;35.97;;;;;;;-3.31;100.00;102675.81;4945883;28;20054;-82
2022/01/11 03:19:53;;;;;;;84.40;34.80;;;;;;;-3.24;100.00;102675.47;4923297;28;20042;-82
2022/01/11 03:22:20;;;;;;;94.17;37.30;;;;;;;-3.22;100.00;102677.34;4921417;28;20416;-82
2022/01/11 03:24:47;;;;;;;85.47;35.47;;;;;;;-3.12;100.00;102684.03;4955278;28;20035;-83
2022/01/11 03:27:13;;;;;;;94.63;36.30;;;;;;;-3.16;100.00;102682.94;4923526;28;20051;-83
2022/01/11 03:29:40;;;;;;;83.40;36.03;;;;;;;-3.18;100.00;102691.38;4943043;28;20050;-84
2022/01/11 03:32:08;;;;;;;81.80;35.33;;;;;;;-3.13;100.00;102687.41;4959934;28;20105;-82
2022/01/11 03:34:54;;;;;;;84.97;36.07;;;;;;;-3.17;100.00;102693.19;4952328;28;20085;-83
2022/01/11 03:37:21;;;;;;;85.57;36.87;;;;;;;-3.26;100.00;102698.63;4938544;28;20046;-82
2022/01/11 03:39:48;;;;;;;86.73;34.33;;;;;;;-3.17;100.00;102695.75;4958297;28;20059;-82
2022/01/11 03:42:15;;;;;;;78.50;33.63;;;;;;;-3.22;100.00;102697.13;4944010;29;20039;-82
2022/01/11 03:44:41;;;;;;;86.50;35.40;;;;;;;-3.13;100.00;102697.75;4912456;28;20460;-84
2022/01/11 03:47:08;;;;;;;82.50;32.80;;;;;;;-3.22;100.00;102708.38;4938233;28;20492;-83
2022/01/11 03:49:35;;;;;;;90.37;36.03;;;;;;;-3.21;100.00;102707.56;4941623;28;20066;-82
2022/01/11 03:52:02;;;;;;;73.53;32.90;;;;;;;-3.30;100.00;102708.63;4925321;28;20550;-83
2022/01/11 03:54:43;;;;;;;84.03;38.03;;;;;;;-3.29;100.00;102707.84;4951247;28;20500;-83
2022/01/11 03:57:09;;;;;;;84.17;33.53;;;;;;;-3.28;100.00;102707.03;4934739;28;20043;-82
2022/01/11 03:59:36;;;;;;;81.57;33.77;;;;;;;-3.21;100.00;102709.25;4958770;28;20098;-82
2022/01/11 04:02:03;;;;;;;78.83;31.50;;;;;;;-3.26;100.00;102708.97;4966554;28;20175;-82
2022/01/11 04:04:30;;;;;;;94.13;36.43;;;;;;;-3.21;100.00;102715.31;4939497;28;20304;-82
2022/01/11 04:06:57;;;;;;;76.37;32.00;;;;;;;-3.33;100.00;102716.19;4940831;28;20044;-83
2022/01/11 04:09:24;;;;;;;76.00;33.10;;;;;;;-3.27;100.00;102714.94;4954955;28;20053;-82
2022/01/11 04:11:51;;;;;;;79.27;30.87;;;;;;;-3.21;100.00;102709.25;4948434;28;20117;-83
2022/01/11 04:14:18;;;;;;;84.73;33.80;;;;;;;-3.27;100.00;102714.03;4975597;28;20407;-82
2022/01/11 04:16:46;;;;;;;76.40;32.50;;;;;;;-3.28;100.00;102710.56;4929546;28;20047;-82
2022/01/11 04:19:13;;;;;;;77.60;31.40;;;;;;;-3.26;100.00;102708.06;4949542;28;20046;-82
2022/01/11 04:21:39;;;;;;;69.57;32.70;;;;;;;-3.18;100.00;102719.81;4971958;28;20456;-83
2022/01/11 04:24:10;;;;;;;76.50;31.23;;;;;;;-3.21;100.00;102714.44;4980448;28;20484;-82
2022/01/11 04:26:38;;;;;;;74.40;31.93;;;;;;;-3.18;100.00;102715.56;4923244;29;20113;-82
2022/01/11 04:29:05;;;;;;;67.07;30.53;;;;;;;-3.12;100.00;102715.03;4939278;29;20047;-83
2022/01/11 04:31:33;;;;;;;76.03;32.30;;;;;;;-3.41;100.00;102713.97;4930951;29;20051;-83
2022/01/11 04:34:01;;;;;;;76.47;30.70;;;;;;;-3.37;100.00;102719.34;4923854;29;20047;-84
2022/01/11 04:36:28;;;;;;;72.67;32.37;;;;;;;-3.35;100.00;102726.44;4925114;28;20046;-83
2022/01/11 04:38:55;;;;;;;67.60;31.10;;;;;;;-3.30;100.00;102716.38;4961064;28;20053;-83
2022/01/11 04:41:21;;;;;;;71.83;30.33;;;;;;;-3.25;100.00;102723.69;4949665;28;20061;-83
2022/01/11 04:43:48;;;;;;;80.73;32.13;;;;;;;-3.23;100.00;102727.25;4983349;28;20046;-83
2022/01/11 04:46:18;;;;;;;74.80;34.13;;;;;;;-3.17;100.00;102729.38;4947790;28;20047;-82
2022/01/11 04:48:46;;;;;;;83.90;33.03;;;;;;;-3.18;100.00;102731.06;4949971;28;20053;-83
2022/01/11 04:51:15;;;;;;;74.63;31.23;;;;;;;-3.07;100.00;102730.88;4951975;28;20051;-83
2022/01/11 04:53:41;;;;;;;67.47;28.83;;;;;;;-3.01;100.00;102737.38;4952172;28;20042;-83
2022/01/11 04:56:08;;;;;;;78.23;30.43;;;;;;;-2.97;100.00;102730.72;4943439;28;20046;-83
2022/01/11 04:58:35;;;;;;;76.80;33.00;;;;;;;-3.00;100.00;102728.81;4943703;28;20053;-83
2022/01/11 05:01:02;;;;;;;75.93;31.57;;;;;;;-3.07;100.00;102734.38;4957838;28;20622;-83
2022/01/11 05:03:30;;;;;;;74.97;29.73;;;;;;;-3.17;100.00;102737.13;4943832;28;20129;-83
2022/01/11 05:05:56;;;;;;;67.20;30.77;;;;;;;-3.19;100.00;102739.63;4955201;28;20047;-82
2022/01/11 05:08:23;;;;;;;70.43;31.17;;;;;;;-3.21;100.00;102729.94;4965297;28;20066;-83
2022/01/11 05:10:50;;;;;;;70.37;28.43;;;;;;;-3.19;100.00;102728.38;4937580;28;20046;-81
2022/01/11 05:13:18;;;;;;;71.17;30.27;;;;;;;-3.15;100.00;102733.84;4939836;28;20614;-82
2022/01/11 05:15:46;;;;;;;66.20;28.43;;;;;;;-3.10;100.00;102741.03;4972964;28;20043;-83
2022/01/11 05:18:13;;;;;;;69.80;29.87;;;;;;;-3.18;100.00;102736.22;4938794;28;20066;-81
2022/01/11 05:20:40;;;;;;;66.80;29.27;;;;;;;-3.12;100.00;102743.47;4939406;28;20050;-82
2022/01/11 05:23:08;;;;;;;69.77;28.90;;;;;;;-3.15;100.00;102751.03;4938608;28;20464;-82
2022/01/11 05:25:35;;;;;;;58.80;27.80;;;;;;;-3.07;100.00;102755.06;4924257;28;20076;-82
2022/01/11 05:28:02;;;;;;;56.80;26.90;;;;;;;-2.98;100.00;102753.09;4935900;29;20497;-82
2022/01/11 05:30:30;;;;;;;55.93;23.47;;;;;;;-2.98;100.00;102760.84;4924497;28;20054;-81
2022/01/11 05:32:57;;;;;;;54.47;26.37;;;;;;;-3.00;100.00;102757.28;4954899;28;20389;-81
2022/01/11 05:35:24;;;;;;;63.90;28.33;;;;;;;-2.97;100.00;102751.41;4956279;28;20709;-83
2022/01/11 05:37:52;;;;;;;60.50;24.20;;;;;;;-3.13;100.00;102754.63;4939183;28;20049;-81
2022/01/11 05:40:19;;;;;;;59.37;26.23;;;;;;;-3.20;100.00;102761.06;4924432;28;20055;-82
2022/01/11 05:42:49;;;;;;;64.77;27.17;;;;;;;-3.09;100.00;102759.22;4932210;28;20055;-81
2022/01/11 05:45:16;;;;;;;58.20;23.80;;;;;;;-3.12;100.00;102770.22;4937526;28;20047;-81
2022/01/11 05:47:43;;;;;;;60.47;27.80;;;;;;;-3.15;100.00;102770.03;4936309;28;20475;-81
2022/01/11 05:50:12;;;;;;;65.90;26.80;;;;;;;-3.11;100.00;102755.66;4923947;28;20051;-81
2022/01/11 05:52:39;;;;;;;58.13;22.97;;;;;;;-3.16;100.00;102765.66;4935057;28;20057;-82
2022/01/11 05:55:07;;;;;;;60.77;26.47;;;;;;;-3.15;100.00;102777.78;4937784;28;20043;-81
2022/01/11 05:57:34;;;;;;;60.13;25.43;;;;;;;-3.08;100.00;102773.94;4915227;29;20043;-82
2022/01/11 06:00:04;;;;;;;50.60;23.93;;;;;;;-3.08;100.00;102776.53;4945154;28;20126;-82
2022/01/11 06:02:31;;;;;;;59.80;25.30;;;;;;;-3.02;100.00;102771.78;4901609;29;20058;-82
2022/01/11 06:04:57;;;;;;;58.53;25.67;;;;;;;-3.19;100.00;102775.81;4950418;28;20038;-83
2022/01/11 06:07:24;;;;;;;58.63;23.00;;;;;;;-3.22;100.00;102774.69;4939584;28;20054;-81
2022/01/11 06:09:51;;;;;;;54.30;21.93;;;;;;;-3.15;100.00;102780.38;4940606;28;20046;-82
2022/01/11 06:12:17;;;;;;;50.27;22.43;;;;;;;-3.04;100.00;102785.38;4943179;28;20051;-81
2022/01/11 06:14:44;;;;;;;49.77;23.33;;;;;;;-3.13;100.00;102781.38;4951804;28;20042;-80
2022/01/11 06:17:10;;;;;;;57.40;24.97;;;;;;;-2.99;100.00;102789.19;4935658;28;20050;-82
2022/01/11 06:19:37;;;;;;;55.27;23.30;;;;;;;-3.11;100.00;102784.09;4949460;28;20093;-83
2022/01/11 06:22:04;;;;;;;51.37;22.73;;;;;;;-3.12;100.00;102787.44;4932357;29;20063;-81
2022/01/11 06:24:30;;;;;;;50.07;22.00;;;;;;;-3.11;100.00;102797.03;4925224;28;20417;-81
2022/01/11 06:26:57;;;;;;;56.80;24.73;;;;;;;-3.03;100.00;102793.25;4948607;29;20492;-83
2022/01/11 06:29:24;;;;;;;50.13;23.17;;;;;;;-3.16;100.00;102796.69;4918282;29;20055;-81
2022/01/11 06:31:50;;;;;;;58.63;23.60;;;;;;;-3.17;100.00;102804.34;4931961;29;20098;-81
2022/01/11 06:34:17;;;;;;;54.57;23.27;;;;;;;-3.22;100.00;102798.84;4937150;28;20039;-82
2022/01/11 06:36:44;;;;;;;56.17;23.97;;;;;;;-3.17;100.00;102804.34;4954880;28;20038;-82
2022/01/11 06:39:10;;;;;;;47.30;22.20;;;;;;;-3.05;100.00;102799.09;4956306;28;20053;-82
2022/01/11 06:41:37;;;;;;;55.17;24.73;;;;;;;-3.07;100.00;102796.41;4945330;28;20405;-82
2022/01/11 06:44:05;;;;;;;57.50;22.87;;;;;;;-3.10;100.00;102801.41;4933782;29;20058;-82
2022/01/11 06:46:32;;;;;;;52.93;24.37;;;;;;;-3.06;100.00;102794.72;4916402;29;20043;-84
2022/01/11 06:49:01;;;;;;;48.87;21.53;;;;;;;-3.07;100.00;102806.75;4919070;29;20118;-82
2022/01/11 06:51:27;;;;;;;51.47;22.07;;;;;;;-3.02;100.00;102802.81;4947499;29;20047;-83
2022/01/11 06:53:54;;;;;;;56.17;23.57;;;;;;;-2.96;100.00;102802.31;4933921;29;20043;-83
2022/01/11 06:56:22;;;;;;;53.40;23.70;;;;;;;-2.97;100.00;102803.13;4949374;28;20051;-83
2022/01/11 06:58:48;;;;;;;52.77;22.17;;;;;;;-3.12;100.00;102809.00;4921527;28;20050;-82
2022/01/11 07:01:15;;;;;;;53.67;22.57;;;;;;;-3.20;100.00;102804.09;4918859;28;20777;-83
2022/01/11 07:03:42;;;;;;;52.70;23.53;;;;;;;-3.23;100.00;102811.66;4920784;28;20049;-82
2022/01/11 07:06:09;;;;;;;51.53;22.90;;;;;;;-3.18;100.00;102816.38;4919503;28;20051;-82
2022/01/11 07:08:35;;;;;;;51.77;21.90;;;;;;;-3.08;100.00;102815.31;4920307;28;20051;-82
2022/01/11 07:11:02;;;;;;;50.10;22.77;;;;;;;-3.08;100.00;102817.00;4940723;28;20047;-83
2022/01/11 07:13:29;;;;;;;50.13;23.33;;;;;;;-3.16;100.00;102829.41;4935329;28;20047;-82
2022/01/11 07:15:55;;;;;;;50.87;21.57;;;;;;;-3.36;100.00;102827.09;4950998;28;20621;-81
2022/01/11 07:18:22;;;;;;;54.33;22.13;;;;;;;-3.23;100.00;102824.59;4933051;28;20050;-82
2022/01/11 07:20:49;;;;;;;52.10;21.47;;;;;;;-3.18;100.00;102834.47;4919944;29;20520;-81
2022/01/11 07:23:15;;;;;;;51.97;23.57;;;;;;;-3.28;100.00;102842.38;4918187;29;20059;-82
2022/01/11 07:25:42;;;;;;;50.97;22.67;;;;;;;-3.35;100.00;102844.41;4939316;29;20043;-81
2022/01/11 07:28:11;;;;;;;51.80;22.40;;;;;;;-3.27;100.00;102849.34;4953245;28;20047;-81
2022/01/11 07:30:37;;;;;;;55.90;23.80;;;;;;;-3.29;100.00;102855.16;4941228;28;20039;-82
2022/01/11 07:33:04;;;;;;;55.50;22.87;;;;;;;-3.24;100.00;102859.88;4956934;28;20508;-81
2022/01/11 07:35:31;;;;;;;54.93;23.27;;;;;;;-3.24;100.00;102865.06;4926246;28;20407;-81
2022/01/11 07:37:58;;;;;;;52.40;22.50;;;;;;;-3.20;100.00;102858.41;4941295;28;20102;-80
2022/01/11 07:40:25;;;;;;;55.73;23.17;;;;;;;-3.13;100.00;102863.22;4925990;28;20066;-81
2022/01/11 07:42:52;;;;;;;50.00;23.70;;;;;;;-3.09;100.00;102857.47;4921084;28;20046;-81
2022/01/11 07:45:18;;;;;;;47.00;21.33;;;;;;;-3.08;100.00;102861.84;4957844;28;20370;-82
2022/01/11 07:47:45;;;;;;;56.47;23.97;;;;;;;-3.18;100.00;102864.59;4953298;28;20113;-82
2022/01/11 07:50:12;;;;;;;54.53;25.43;;;;;;;-3.17;100.00;102868.97;4922635;29;20509;-82
2022/01/11 07:52:39;;;;;;;59.97;24.57;;;;;;;-3.05;100.00;102866.34;4936831;29;20062;-81
2022/01/11 07:55:07;;;;;;;57.17;23.87;;;;;;;-3.16;100.00;102876.84;4933932;28;20113;-81
2022/01/11 07:57:34;;;;;;;59.93;24.87;;;;;;;-3.10;100.00;102866.03;4937244;29;20040;-83
2022/01/11 08:00:01;;;;;;;58.93;24.97;;;;;;;-3.12;100.00;102880.50;4938971;29;20142;-81
2022/01/11 08:02:27;;;;;;;63.30;25.87;;;;;;;-3.14;100.00;102880.41;4926949;29;20044;-81
2022/01/11 08:04:54;;;;;;;53.90;24.50;;;;;;;-3.12;100.00;102885.69;4939698;28;20039;-83
2022/01/11 08:07:21;;;;;;;58.17;24.23;;;;;;;-3.13;100.00;102889.06;4953182;28;20042;-82
2022/01/11 08:09:48;;;;;;;60.80;25.40;;;;;;;-3.06;100.00;102877.47;4941441;28;20046;-82
2022/01/11 08:12:14;;;;;;;59.40;25.10;;;;;;;-3.07;100.00;102886.03;4934650;28;20507;-81
2022/01/11 08:14:41;;;;;;;58.73;25.87;;;;;;;-3.07;100.00;102884.34;4960508;28;20042;-79
2022/01/11 08:17:08;;;;;;;56.37;24.00;;;;;;;-2.98;100.00;102895.31;4943282;28;20047;-82
2022/01/11 08:19:35;;;;;;;57.83;26.90;;;;;;;-2.85;100.00;102892.81;4944668;28;20046;-81
2022/01/11 08:22:02;;;;;;;59.93;25.17;;;;;;;-2.85;100.00;102889.34;4942833;28;20046;-82
2022/01/11 08:24:29;;;;;;;55.00;25.23;;;;;;;-2.92;100.00;102895.75;4932868;29;20420;-82
2022/01/11 08:26:55;;;;;;;61.10;24.43;;;;;;;-2.95;100.00;102895.53;4924275;28;20054;-83
2022/01/11 08:29:22;;;;;;;60.57;25.83;;;;;;;-2.94;100.00;102899.03;5030942;23;20043;-82
2022/01/11 08:31:49;;;;;;;53.60;23.00;;;;;;;-2.91;100.00;102900.13;4957879;28;20101;-81
2022/01/11 08:34:17;;;;;;;49.60;23.57;;;;;;;-2.87;100.00;102896.97;4975239;28;20047;-82
2022/01/11 08:36:45;;;;;;;57.93;25.53;;;;;;;-2.82;100.00;102897.28;4957842;28;20054;-81
2022/01/11 08:39:12;;;;;;;56.90;22.27;;;;;;;-2.79;100.00;102899.19;4958712;28;20534;-83
2022/01/11 08:41:39;;;;;;;51.70;22.07;;;;;;;-2.86;100.00;102903.94;4941026;28;20053;-81
2022/01/11 08:44:06;;;;;;;57.23;23.20;;;;;;;-2.72;100.00;102899.72;4942983;28;20054;-82
2022/01/11 08:46:34;;;;;;;55.13;22.00;;;;;;;-2.79;100.00;102892.31;4957670;28;20051;-81
2022/01/11 08:49:01;;;;;;;51.63;23.33;;;;;;;-2.82;100.00;102899.88;4975353;28;20053;-82
2022/01/11 08:51:28;;;;;;;57.17;24.10;;;;;;;-2.87;100.00;102899.53;4940986;28;20046;-81
2022/01/11 08:53:55;;;;;;;55.63;23.90;;;;;;;-2.71;100.00;102905.78;4958865;28;20046;-82
2022/01/11 08:56:21;;;;;;;59.80;24.23;;;;;;;-2.70;100.00;102897.22;4957399;28;20105;-82
2022/01/11 08:58:48;;;;;;;47.20;23.03;;;;;;;-2.71;100.00;102900.63;4951006;28;20100;-81
2022/01/11 09:01:15;;;;;;;53.63;24.00;;;;;;;-2.73;100.00;102894.44;4973203;28;20047;-82
2022/01/11 09:03:42;;;;;;;51.93;23.47;;;;;;;-2.61;100.00;102898.78;4961816;28;20048;-82
2022/01/11 09:06:09;;;;;;;54.80;24.33;;;;;;;-2.68;100.00;102896.56;4976761;28;20049;-81
2022/01/11 09:08:37;;;;;;;51.33;22.17;;;;;;;-2.68;100.00;102895.66;4962060;28;20398;-82
2022/01/11 09:11:05;;;;;;;49.10;22.67;;;;;;;-2.61;100.00;102903.03;4976246;28;20069;-81
2022/01/11 09:13:34;;;;;;;55.40;23.90;;;;;;;-2.58;100.00;102904.16;4977148;28;20487;-81
2022/01/11 09:16:01;;;;;;;46.70;20.50;;;;;;;-2.60;100.00;102891.91;4960300;28;20532;-82
2022/01/11 09:18:28;;;;;;;51.30;23.97;;;;;;;-2.60;100.00;102900.56;4976926;28;20503;-81
2022/01/11 09:20:54;;;;;;;55.17;22.67;;;;;;;-2.62;100.00;102906.41;4975945;28;20444;-82
2022/01/11 09:23:21;;;;;;;52.37;22.37;;;;;;;-2.60;100.00;102905.75;4963233;28;20130;-83
2022/01/11 09:25:48;;;;;;;48.63;20.40;;;;;;;-2.65;100.00;102901.94;4948038;28;20045;-83
2022/01/11 09:28:15;;;;;;;49.10;20.53;;;;;;;-2.60;100.00;102894.50;4948048;28;20050;-82
2022/01/11 09:30:42;;;;;;;47.23;20.60;;;;;;;-2.60;100.00;102902.28;4997607;28;20046;-82
2022/01/11 09:33:09;;;;;;;52.07;21.77;;;;;;;-2.64;100.00;102892.47;4978811;28;20108;-83
2022/01/11 09:35:36;;;;;;;49.90;22.23;;;;;;;-2.57;100.00;102895.59;4963488;28;20053;-82
2022/01/11 09:38:03;;;;;;;45.87;20.73;;;;;;;-2.56;100.00;102886.16;4958640;28;20082;-82
2022/01/11 09:40:29;;;;;;;49.17;22.03;;;;;;;-2.60;100.00;102891.91;4943420;28;20049;-82
2022/01/11 09:42:56;;;;;;;51.07;20.90;;;;;;;-2.58;100.00;102890.31;4943013;28;20047;-82
2022/01/11 09:45:23;;;;;;;45.57;21.97;;;;;;;-2.51;100.00;102897.72;4945509;28;20082;-82
2022/01/11 09:47:50;;;;;;;49.77;21.77;;;;;;;-2.44;100.00;102894.72;4943524;28;20093;-82
2022/01/11 09:50:17;;;;;;;52.23;22.53;;;;;;;-2.37;100.00;102899.53;4945790;28;20047;-82
2022/01/11 09:52:44;;;;;;;45.40;21.20;;;;;;;-2.43;100.00;102895.66;4963944;28;20114;-83
2022/01/11 09:55:13;;;;;;;48.33;23.07;;;;;;;-2.46;100.00;102904.09;4970315;28;20487;-82
2022/01/11 09:57:41;;;;;;;49.97;22.37;;;;;;;-2.39;100.00;102915.75;4948877;28;20047;-83
2022/01/11 10:00:10;;;;;;;54.17;23.67;;;;;;;-2.39;100.00;102916.66;4976982;28;20055;-83
2022/01/11 10:02:37;;;;;;;52.53;21.93;;;;;;;-2.36;100.00;102905.59;4943082;28;20547;-82
2022/01/11 10:05:07;;;;;;;51.50;23.40;;;;;;;-2.31;100.00;102910.31;4969869;28;20067;-82
2022/01/11 10:07:40;;;;;;;47.50;20.40;;;;;;;-2.28;100.00;102907.91;4959207;28;20493;-83
2022/01/11 10:10:12;;;;;;;47.73;21.20;;;;;;;-2.25;100.00;102899.47;4960472;28;20685;-83
2022/01/11 10:12:41;;;;;;;46.53;21.73;;;;;;;-2.27;100.00;102904.56;4958557;28;20137;-83
2022/01/11 10:15:08;;;;;;;50.87;22.83;;;;;;;-2.17;100.00;102906.06;4961720;28;20495;-83
2022/01/11 10:17:43;;;;;;;47.83;20.47;;;;;;;-2.16;100.00;102909.56;4974310;28;20077;-81
2022/01/11 10:20:15;;;;;;;46.87;20.63;;;;;;;-2.12;100.00;102906.34;4960703;28;20053;-84
2022/01/11 10:23:03;;;;;;;46.37;21.33;;;;;;;-2.03;100.00;102901.78;4957644;28;20110;-82
2022/01/11 10:25:31;;;;;;;42.70;20.17;;;;;;;-2.03;100.00;102901.78;4959950;28;20094;-83
2022/01/11 10:28:04;;;;;;;50.97;21.03;;;;;;;-2.13;100.00;102895.09;4960071;28;20054;-83
2022/01/11 10:30:32;;;;;;;43.13;19.50;;;;;;;-2.01;100.00;102888.16;4946112;28;20126;-82
2022/01/11 10:33:01;;;;;;;47.30;21.37;;;;;;;-2.04;100.00;102887.06;4976179;28;20069;-83
2022/01/11 10:35:40;;;;;;;48.13;20.93;;;;;;;-1.90;100.00;102881.09;4945623;28;20104;-82
2022/01/11 10:38:23;;;;;;;50.05;20.30;;;;;;;-1.84;100.00;102885.78;4960215;28;20080;-83
2022/01/11 10:40:50;;;;;;;45.57;19.97;;;;;;;-1.82;100.00;102879.00;4970491;28;20041;-82
2022/01/11 10:43:19;;;;;;;44.30;19.67;;;;;;;-1.81;100.00;102879.09;4991215;28;20069;-83
2022/01/11 10:45:49;;;;;;;44.97;19.73;;;;;;;-1.76;100.00;102888.09;4987246;28;20061;-82
2022/01/11 10:48:18;;;;;;;43.40;20.50;;;;;;;-1.62;100.00;102886.38;4960005;28;20105;-81
2022/01/11 10:50:54;;;;;;;37.97;20.10;;;;;;;-1.61;100.00;102892.44;4995481;28;20045;-82
2022/01/11 10:53:32;;;;;;;39.27;19.50;;;;;;;-1.70;100.00;102874.59;4998335;28;20033;-83
2022/01/11 10:56:01;;;;;;;41.80;20.53;;;;;;;-1.70;100.00;102885.88;4966367;28;20468;-82
2022/01/11 10:58:42;;;;;;;44.97;20.33;;;;;;;-1.64;100.00;102887.97;4987299;28;20049;-83
2022/01/11 11:01:11;;;;;;;48.20;21.50;;;;;;;-1.63;100.00;102889.75;4983839;28;20095;-82
2022/01/11 11:03:38;;;;;;;45.10;19.97;;;;;;;-1.63;100.00;102886.28;4998825;28;20057;-83
2022/01/11 11:06:10;;;;;;;38.93;17.53;;;;;;;-1.49;100.00;102888.06;5001341;28;20092;-83
2022/01/11 11:08:42;;;;;;;44.50;20.70;;;;;;;-1.44;100.00;102882.34;4951399;28;20073;-82